• Join FlightAware (Why Join?)
  • Login
  • US Flag 
05:06PM EDT


 

Airport Tracker/Info


-or-


 

Live Flight TrackerFlight Track Log ✈ UAL656 ✈ 02-Jul-2013 ✈ KMSY - KIAH

Flight Track Log - Related Links

Times and Time Zones

All times are in EDT time to prevent confusion due to time zone crossing. See the UAL656 flight status page for this flight to view local times or setup timezone preferences in your user account.

Time Position Orientation Groundspeed Altitude Reporting Facility
EDT Latitude Longitude Course Direction KTS MPH feet Rate Location/Type
08:50AM 30.0072 -90.2456 257° West 152 175 800  Level Houston Center
08:50AM 30.0300 -90.2372 18° North 145 167 1,800 2,340 Climbing Houston Center
08:52AM 30.1022 -90.2547 348° North 220 253 5,800 2,760 Climbing Houston Center
08:53AM 29.8486 -90.5923 244° Southwest  Level FlightAware Approximate
08:53AM 30.0717 -90.3342 246° West 271 312 8,900  Level Houston Center
08:54AM 29.8167 -90.6792 270° West  Level FlightAware Approximate
08:54AM 30.0311 -90.4136 239° Southwest 287 330 11,700  Level Houston Center
08:55AM 29.8054 -90.7732 257° West  Level FlightAware Approximate
08:55AM 29.9886 -90.5050 242° Southwest 319 367 14,900  Level Houston Center
08:56AM 29.9458 -90.5953 241° Southwest 322 371 17,800 2,820 Climbing Houston Center
08:57AM 29.8956 -90.7100 243° Southwest 334 384 20,800 2,460 Climbing Houston Center
08:58AM 29.8683 -90.8189 254° West 356 410 22,900 2,040 Climbing Houston Center
08:59AM 29.8425 -90.9292 255° West 357 411 25,100 1,980 Climbing Houston Center
09:00AM 29.8136 -91.0414 254° West 365 420 27,000 1,800 Climbing Houston Center
09:01AM 29.7850 -91.1583 254° West 378 435 28,900 1,980 Climbing Houston Center
09:02AM 29.7567 -91.2750 254° West 379 436 31,100 1,500 Climbing Houston Center
09:03AM 29.7222 -91.4144 254° West 378 435 32,000 360 Climbing Houston Center
09:04AM 29.6922 -91.5325 254° West 384 442 31,900  Descending Houston Center
09:05AM 29.6625 -91.6500 254° West 383 441 32,000  Climbing Houston Center
09:06AM 29.6319 -91.7750 254° West 383 441 31,900 -60 Descending Houston Center
09:07AM 29.6008 -91.8939 253° West 387 445 31,900  Level Houston Center
09:08AM 29.5706 -92.0128 254° West 389 448 32,000  Climbing Houston Center
09:09AM 29.5397 -92.1306 253° West 386 444 32,000 -60 Level Houston Center
09:10AM 29.5106 -92.2497 254° West 387 445 31,900 -60 Descending Houston Center
09:11AM 29.4794 -92.3675 253° West 386 444 31,900  Level Houston Center
09:12AM 29.4583 -92.5153 261° West 393 452 32,000  Climbing Houston Center
09:13AM 29.4644 -92.6375 273° West 387 445 32,000 -60 Level Houston Center
09:15AM 29.4708 -92.7622 273° West 390 449 31,900 -60 Descending Houston Center
09:16AM 29.4772 -92.8858 273° West 388 447 31,900  Level Houston Center
09:17AM 29.4819 -93.0103 273° West 390 449 31,900  Level Houston Center
09:18AM 29.4872 -93.1347 273° West 391 450 32,000 -780 Climbing Houston Center
09:19AM 29.4922 -93.2592 273° West 390 449 30,300 -1,980 Descending Houston Center
09:20AM 29.4967 -93.3850 272° West 392 451 28,000 -2,340 Descending Houston Center
09:21AM 29.5036 -93.5303 273° West 382 440 25,500 -1,980 Descending Houston Center
09:22AM 29.5075 -93.6481 272° West 372 428 24,000 -1,020 Descending Houston Center
09:23AM 29.5119 -93.7711 272° West 380 437 23,500 -1,860 Descending Houston Center
09:24AM 29.5175 -93.8864 273° West 367 422 20,200 -2,580 Descending Houston Center
09:25AM 29.5211 -93.9969 272° West 352 405 18,200 -1,800 Descending Houston Center
09:26AM 29.5247 -94.1083 272° West 348 400 16,600 -1,740 Descending Houston Center
09:27AM 29.5267 -94.2067 271° West 340 391 15,200 -1,860 Descending Houston Center
09:28AM 29.5297 -94.3000 272° West 336 387 13,600 -1,260 Descending Houston Center
09:29AM 29.5569 -94.4022 287° West 306 352 12,800 -780 Descending Houston Center
09:30AM 29.6000 -94.4783 303° West 270 311 12,100 -1,080 Descending Houston Center
09:31AM 29.6519 -94.5367 316° Northwest 266 306 10,700 -1,140 Descending Houston Center
09:32AM 29.7022 -94.5978 313° West 246 283 9,800 -1,020 Descending Houston Center
09:33AM 29.7433 -94.6550 310° West 231 266 8,700 -1,080 Descending Houston Center
09:34AM 29.7772 -94.7228 300° West 221 254 7,600 -1,080 Descending Houston Center
09:35AM 29.8086 -94.7864 300° West 216 249 6,500 -1,140 Descending Houston Center
09:36AM 29.8375 -94.8478 298° West 214 246 5,400 -1,080 Descending Houston Center
09:37AM 29.8714 -94.9158 300° West 213 245 4,200 -960 Descending Houston Center
09:38AM 29.8978 -94.9728 298° West 202 232 3,400 -840 Descending Houston Center
09:39AM 29.9264 -95.0294 300° West 199 229 2,600 -780 Descending Houston Center
09:40AM 29.9497 -95.0772 299° West 190 219 2,000 -660 Descending Houston Center